createdAt,value
2018-04-28T00:00:48.377Z,0
2018-04-28T00:01:48.079Z,0
2018-04-28T00:02:48.079Z,0
2018-04-28T00:03:48.080Z,0
2018-04-28T00:04:48.328Z,0
2018-04-28T00:05:48.577Z,0
2018-04-28T00:06:48.320Z,0
2018-04-28T00:07:48.125Z,0
2018-04-28T00:08:48.570Z,0
2018-04-28T00:09:48.327Z,0
2018-04-28T00:10:48.325Z,0
2018-04-28T00:11:48.311Z,0
2018-04-28T00:12:47.808Z,0
2018-04-28T00:13:48.069Z,0
2018-04-28T00:14:49.383Z,0
2018-04-28T00:15:48.059Z,0
2018-04-28T00:16:48.309Z,0
2018-04-28T00:17:48.565Z,0
2018-04-28T00:18:48.076Z,0
2018-04-28T00:19:48.550Z,0
2018-04-28T00:20:48.118Z,0
2018-04-28T00:21:48.056Z,0
2018-04-28T00:22:48.062Z,0
2018-04-28T00:23:48.327Z,0
2018-04-28T00:24:49.917Z,0
2018-04-28T00:25:48.377Z,0
2018-04-28T00:26:48.550Z,0
2018-04-28T00:27:48.574Z,0
2018-04-28T00:28:48.042Z,0
2018-04-28T00:29:48.058Z,0
2018-04-28T00:30:48.556Z,0
2018-04-28T00:31:48.042Z,0
2018-04-28T00:32:48.544Z,0
2018-04-28T00:33:48.549Z,0
2018-04-28T00:34:48.302Z,0
2018-04-28T00:35:48.538Z,0
2018-04-28T00:36:48.280Z,0
2018-04-28T00:37:48.290Z,0
2018-04-28T00:38:48.286Z,0
2018-04-28T00:39:48.295Z,0
2018-04-28T00:40:48.056Z,0
2018-04-28T00:41:48.276Z,0
2018-04-28T00:42:48.547Z,0
2018-04-28T00:43:48.287Z,0
2018-04-28T00:44:49.078Z,0
2018-04-28T00:45:48.288Z,0
2018-04-28T00:46:48.277Z,0
2018-04-28T00:47:48.277Z,0
2018-04-28T00:48:48.274Z,0
2018-04-28T00:49:47.777Z,0
2018-04-28T00:50:48.275Z,0
2018-04-28T00:51:48.035Z,0
2018-04-28T00:52:48.528Z,0
2018-04-28T00:53:48.018Z,0
2018-04-28T00:54:48.027Z,0
2018-04-28T00:55:48.526Z,0
2018-04-28T00:56:48.267Z,0
2018-04-28T00:57:48.518Z,0
2018-04-28T00:58:48.022Z,0
2018-04-28T00:59:48.532Z,0
2018-04-28T01:00:48.018Z,0
2018-04-28T01:01:48.512Z,0
2018-04-28T01:02:48.262Z,0
2018-04-28T01:03:48.251Z,0
2018-04-28T01:04:48.008Z,0
2018-04-28T01:05:48.015Z,0
2018-04-28T01:06:48.497Z,0
2018-04-28T01:07:48.508Z,0
2018-04-28T01:08:48.503Z,0
2018-04-28T01:09:48.529Z,0
2018-04-28T01:10:48.250Z,0
2018-04-28T01:11:48.507Z,0
2018-04-28T01:12:48.511Z,0
2018-04-28T01:13:48.246Z,0
2018-04-28T01:14:48.235Z,0
2018-04-28T01:15:48.495Z,0
2018-04-28T01:16:48.241Z,0
2018-04-28T01:17:48.236Z,0
2018-04-28T01:18:48.238Z,0
2018-04-28T01:19:48.485Z,0
2018-04-28T01:20:47.982Z,0
2018-04-28T01:21:48.249Z,0
2018-04-28T01:22:48.480Z,0
2018-04-28T01:23:47.982Z,0
2018-04-28T01:24:47.978Z,0
2018-04-28T01:25:48.241Z,0
2018-04-28T01:26:47.747Z,0
2018-04-28T01:27:48.484Z,0
2018-04-28T01:28:48.495Z,0
2018-04-28T01:29:48.468Z,0
2018-04-28T01:30:47.998Z,0
2018-04-28T01:31:48.030Z,0
2018-04-28T01:32:48.226Z,0
2018-04-28T01:33:48.224Z,0
2018-04-28T01:34:48.219Z,0
2018-04-28T01:35:47.726Z,0
2018-04-28T01:36:48.479Z,0
2018-04-28T01:37:47.719Z,0
2018-04-28T01:38:48.221Z,0
2018-04-28T01:39:47.966Z,0
2018-04-28T01:40:48.474Z,0
2018-04-28T01:41:47.981Z,0
2018-04-28T01:42:47.969Z,0
2018-04-28T01:43:48.470Z,0
2018-04-28T01:44:48.053Z,0
2018-04-28T01:45:47.766Z,0
2018-04-28T01:46:48.210Z,0
2018-04-28T01:47:47.955Z,0
2018-04-28T01:48:48.468Z,0
2018-04-28T01:49:48.211Z,0
2018-04-28T01:50:48.208Z,0
2018-04-28T01:51:48.198Z,0
2018-04-28T01:52:48.215Z,0
2018-04-28T01:53:48.225Z,0
2018-04-28T01:54:48.197Z,0
2018-04-28T01:55:47.951Z,0
2018-04-28T01:56:48.188Z,0
2018-04-28T01:57:48.438Z,0
2018-04-28T01:58:48.445Z,0
2018-04-28T01:59:47.708Z,0
2018-04-28T02:00:48.467Z,0
2018-04-28T02:01:48.440Z,0
2018-04-28T02:02:48.441Z,0
2018-04-28T02:03:47.933Z,0
2018-04-28T02:04:48.189Z,0
2018-04-28T02:05:48.236Z,0
2018-04-28T02:06:48.190Z,0
2018-04-28T02:07:48.191Z,0
2018-04-28T02:08:48.434Z,0
2018-04-28T02:09:47.929Z,0
2018-04-28T02:10:47.684Z,0
2018-04-28T02:11:47.954Z,0
2018-04-28T02:12:48.193Z,0
2018-04-28T02:13:47.935Z,0
2018-04-28T02:14:48.450Z,0
2018-04-28T02:15:48.430Z,0
2018-04-28T02:16:47.919Z,0
2018-04-28T02:17:48.447Z,0
2018-04-28T02:18:48.423Z,0
2018-04-28T02:19:48.426Z,0
2018-04-28T02:20:48.428Z,0
2018-04-28T02:21:48.191Z,0
2018-04-28T02:22:48.168Z,0
2018-04-28T02:23:48.173Z,0
2018-04-28T02:24:48.419Z,0
2018-04-28T02:25:48.166Z,0
2018-04-28T02:26:47.929Z,0
2018-04-28T02:27:48.412Z,0
2018-04-28T02:28:48.432Z,0
2018-04-28T02:29:48.422Z,0
2018-04-28T02:30:48.179Z,0
2018-04-28T02:31:48.414Z,0
2018-04-28T02:32:48.438Z,0
2018-04-28T02:33:48.165Z,0
2018-04-28T02:34:48.412Z,0
2018-04-28T02:35:48.217Z,0
2018-04-28T02:36:48.411Z,0
2018-04-28T02:37:48.153Z,0
2018-04-28T02:38:48.152Z,0
2018-04-28T02:39:48.154Z,0
2018-04-28T02:40:48.244Z,0
2018-04-28T02:41:48.156Z,0
2018-04-28T02:42:48.178Z,0
2018-04-28T02:43:48.435Z,0
2018-04-28T02:44:47.897Z,0
2018-04-28T02:45:48.661Z,0
2018-04-28T02:46:48.142Z,0
2018-04-28T02:47:47.895Z,0
2018-04-28T02:48:48.403Z,0
2018-04-28T02:49:48.425Z,0
2018-04-28T02:50:48.383Z,0
2018-04-28T02:51:47.889Z,0
2018-04-28T02:52:48.129Z,0
2018-04-28T02:53:48.142Z,0
2018-04-28T02:54:47.902Z,0
2018-04-28T02:55:47.907Z,0
2018-04-28T02:56:48.397Z,0
2018-04-28T02:57:48.121Z,0
2018-04-28T02:58:48.120Z,0
2018-04-28T02:59:48.140Z,0
2018-04-28T03:00:48.363Z,0
2018-04-28T03:01:48.363Z,0
2018-04-28T03:02:48.382Z,0
2018-04-28T03:03:48.386Z,0
2018-04-28T03:04:48.113Z,0
2018-04-28T03:05:47.863Z,0
2018-04-28T03:06:48.126Z,0
2018-04-28T03:07:48.110Z,0
2018-04-28T03:08:48.117Z,0
2018-04-28T03:09:48.368Z,0
2018-04-28T03:10:47.628Z,0
2018-04-28T03:11:48.152Z,0
2018-04-28T03:12:48.374Z,0
2018-04-28T03:13:48.365Z,0
2018-04-28T03:14:48.369Z,0
2018-04-28T03:15:51.305Z,0
2018-04-28T03:16:48.217Z,0
2018-04-28T03:17:48.356Z,0
2018-04-28T03:18:48.120Z,0
2018-04-28T03:19:48.096Z,0
2018-04-28T03:20:48.357Z,0
2018-04-28T03:21:48.368Z,0
2018-04-28T03:22:48.086Z,0
2018-04-28T03:23:48.087Z,0
2018-04-28T03:24:48.331Z,0
2018-04-28T03:25:48.134Z,0
2018-04-28T03:26:47.580Z,0
2018-04-28T03:27:48.325Z,0
2018-04-28T03:28:48.328Z,0
2018-04-28T03:29:47.838Z,0
2018-04-28T03:37:51.368Z,0
2018-04-28T03:38:08.276Z,0
2018-04-28T03:39:08.509Z,0
2018-04-28T03:40:09.149Z,0
2018-04-28T03:41:08.491Z,0
2018-04-28T03:42:08.750Z,0
2018-04-28T03:43:08.494Z,0
2018-04-28T03:44:08.268Z,0
2018-04-28T03:45:08.456Z,0
2018-04-28T03:46:08.499Z,0
2018-04-28T03:47:08.501Z,0
2018-04-28T03:48:08.741Z,0
2018-04-28T03:49:08.508Z,0
2018-04-28T03:50:08.749Z,0
2018-04-28T03:51:08.497Z,0
2018-04-28T03:52:08.227Z,0
2018-04-28T03:53:09.525Z,0
2018-04-28T03:54:08.770Z,0
2018-04-28T03:55:08.691Z,0
2018-04-28T03:56:08.726Z,0
2018-04-28T03:57:08.459Z,0
2018-04-28T03:58:08.872Z,0
2018-04-28T03:59:08.705Z,0
2018-04-28T04:00:08.765Z,0
2018-04-28T04:01:08.479Z,0
2018-04-28T04:02:08.466Z,0
2018-04-28T04:03:08.680Z,0
2018-04-28T04:04:08.707Z,0
2018-04-28T04:05:08.999Z,0
2018-04-28T04:06:08.198Z,0
2018-04-28T04:07:08.705Z,0
2018-04-28T04:08:08.234Z,0
2018-04-28T04:09:08.711Z,0
2018-04-28T04:10:08.752Z,0
2018-04-28T04:11:08.179Z,0
2018-04-28T04:12:08.445Z,0
2018-04-28T04:13:08.463Z,0
2018-04-28T04:14:08.182Z,0
2018-04-28T04:15:08.546Z,5
2018-04-28T04:16:08.457Z,5
2018-04-28T04:17:08.448Z,5
2018-04-28T04:18:08.605Z,5
2018-04-28T04:19:08.676Z,5
2018-04-28T04:20:08.796Z,5
2018-04-28T04:21:08.700Z,10
2018-04-28T04:22:08.667Z,10
2018-04-28T04:23:08.690Z,10
2018-04-28T04:24:08.438Z,10
2018-04-28T04:25:08.526Z,10
2018-04-28T04:26:08.670Z,10
2018-04-28T04:27:08.670Z,15
2018-04-28T04:28:08.179Z,15
2018-04-28T04:29:08.661Z,15
2018-04-28T04:30:08.684Z,15
2018-04-28T04:31:08.675Z,15
2018-04-28T04:32:08.301Z,15
2018-04-28T04:33:08.427Z,20
2018-04-28T04:34:08.666Z,20
2018-04-28T04:35:08.143Z,20
2018-04-28T04:36:08.398Z,20
2018-04-28T04:37:08.647Z,20
2018-04-28T04:38:08.679Z,20
2018-04-28T04:39:08.656Z,20
2018-04-28T04:40:08.936Z,20
2018-04-28T04:41:08.137Z,20
2018-04-28T04:42:08.388Z,20
2018-04-28T04:43:08.657Z,20
2018-04-28T04:44:08.641Z,20
2018-04-28T04:45:08.645Z,20
2018-04-28T04:46:08.421Z,20
2018-04-28T04:47:08.124Z,25
2018-04-28T04:48:08.127Z,25
2018-04-28T04:49:08.643Z,25
2018-04-28T04:50:08.320Z,30
2018-04-28T04:51:08.396Z,30
2018-04-28T04:52:08.616Z,35
2018-04-28T04:53:08.602Z,35
2018-04-28T04:54:08.370Z,35
2018-04-28T04:55:08.999Z,35
2018-04-28T04:56:08.621Z,35
2018-04-28T04:57:08.445Z,35
2018-04-28T04:58:08.368Z,40
2018-04-28T04:59:08.110Z,45
2018-04-28T05:00:08.475Z,45
2018-04-28T05:01:08.601Z,50
2018-04-28T05:02:08.354Z,55
2018-04-28T05:03:08.669Z,55
2018-04-28T05:04:08.617Z,55
2018-04-28T05:05:08.646Z,60
2018-04-28T05:06:08.373Z,60
2018-04-28T05:07:08.372Z,65
2018-04-28T05:08:08.122Z,70
2018-04-28T05:09:08.343Z,75
2018-04-28T05:10:08.573Z,75
2018-04-28T05:11:07.826Z,110
2018-04-28T05:12:08.602Z,125
2018-04-28T05:13:08.374Z,120
2018-04-28T05:14:08.609Z,80
2018-04-28T05:15:08.542Z,85
2018-04-28T05:16:08.314Z,115
2018-04-28T05:17:08.067Z,70
2018-04-28T05:18:08.598Z,70
2018-04-28T05:19:08.145Z,65
2018-04-28T05:20:08.975Z,65
2018-04-28T05:21:08.050Z,65
2018-04-28T05:22:08.321Z,60
2018-04-28T05:23:08.701Z,65
2018-04-28T05:24:08.060Z,70
2018-04-28T05:25:08.906Z,70
2018-04-28T05:26:08.317Z,80
2018-04-28T05:27:08.316Z,80
2018-04-28T05:28:08.582Z,85
2018-04-28T05:29:08.324Z,90
2018-04-28T05:30:08.445Z,90
2018-04-28T05:31:08.603Z,90
2018-04-28T05:32:08.047Z,90
2018-04-28T05:33:08.570Z,95
2018-04-28T05:34:08.581Z,95
2018-04-28T05:35:08.543Z,95
2018-04-28T05:36:08.779Z,100
2018-04-28T05:37:08.297Z,100
2018-04-28T05:38:08.574Z,170
2018-04-28T05:39:08.593Z,115
2018-04-28T05:40:08.897Z,110
2018-04-28T05:41:08.575Z,115
2018-04-28T05:42:08.292Z,120
2018-04-28T05:43:08.295Z,120
2018-04-28T05:44:08.295Z,120
2018-04-28T05:45:08.827Z,125
2018-04-28T05:46:08.294Z,130
2018-04-28T05:47:08.543Z,125
2018-04-28T05:48:08.054Z,120
2018-04-28T05:49:08.284Z,120
2018-04-28T05:50:08.847Z,125
2018-04-28T05:51:08.307Z,125
2018-04-28T05:52:08.298Z,130
2018-04-28T05:53:08.290Z,135
2018-04-28T05:54:08.289Z,140
2018-04-28T05:55:08.449Z,150
2018-04-28T05:56:07.796Z,150
2018-04-28T05:57:08.285Z,150
2018-04-28T05:58:08.050Z,145
2018-04-28T05:59:08.322Z,140
2018-04-28T06:00:08.564Z,135
2018-04-28T06:01:08.289Z,135
2018-04-28T06:02:08.283Z,130
2018-04-28T06:03:08.578Z,125
2018-04-28T06:04:08.597Z,120
2018-04-28T06:05:08.185Z,120
2018-04-28T06:06:08.570Z,120
2018-04-28T06:07:08.283Z,115
2018-04-28T06:08:08.301Z,110
2018-04-28T06:09:08.567Z,95
2018-04-28T06:10:08.099Z,85
2018-04-28T06:11:08.550Z,75
2018-04-28T06:12:08.577Z,65
2018-04-28T06:13:08.291Z,65
2018-04-28T06:14:08.726Z,65
2018-04-28T06:23:41.670Z,80
2018-04-28T06:24:39.809Z,80
2018-04-28T06:25:39.596Z,75
2018-04-28T06:26:39.558Z,75
2018-04-28T06:27:39.559Z,70
2018-04-28T06:28:39.805Z,70
2018-04-28T06:29:39.311Z,70
2018-04-28T06:30:39.662Z,70
2018-04-28T06:31:39.060Z,75
2018-04-28T06:32:39.557Z,75
2018-04-28T06:33:39.305Z,75
2018-04-28T06:34:39.795Z,70
2018-04-28T06:35:39.130Z,70
2018-04-28T06:36:39.612Z,70
2018-04-28T06:37:39.546Z,70
2018-04-28T06:38:39.591Z,75
2018-04-28T06:39:39.550Z,80
2018-04-28T06:40:39.043Z,90
2018-04-28T06:41:39.545Z,100
2018-04-28T06:42:39.594Z,115
2018-04-28T06:43:39.552Z,150
2018-04-28T06:44:39.562Z,185
2018-04-28T06:45:39.896Z,110
2018-04-28T06:46:39.297Z,105
2018-04-28T06:47:39.041Z,105
2018-04-28T06:48:39.525Z,115
2018-04-28T06:49:39.055Z,90
2018-04-28T06:50:39.155Z,85
2018-04-28T06:51:39.313Z,85
2018-04-28T06:52:39.538Z,85
2018-04-28T06:53:39.283Z,90
2018-04-28T06:54:39.534Z,90
2018-04-28T06:55:39.869Z,95
2018-04-28T06:56:39.782Z,90
2018-04-28T06:57:39.555Z,95
2018-04-28T06:58:40.067Z,95
2018-04-28T06:59:39.286Z,90
2018-04-28T07:00:39.315Z,85
2018-04-28T07:01:39.547Z,80
2018-04-28T07:02:39.788Z,75
2018-04-28T07:03:39.538Z,75
2018-04-28T07:04:39.429Z,80
2018-04-28T07:05:39.591Z,85
2018-04-28T07:06:39.792Z,95
2018-04-28T07:07:39.803Z,100
2018-04-28T07:08:39.795Z,105
2018-04-28T07:09:39.798Z,110
2018-04-28T07:10:39.390Z,115
2018-04-28T07:11:39.567Z,120
2018-04-28T07:12:39.538Z,120
2018-04-28T07:13:39.560Z,115
2018-04-28T07:14:39.040Z,110
2018-04-28T07:15:39.876Z,110
2018-04-28T07:16:39.062Z,110
2018-04-28T07:17:39.569Z,110
2018-04-28T07:18:39.847Z,115
2018-04-28T07:19:39.595Z,120
2018-04-28T07:20:39.377Z,125
2018-04-28T07:21:39.304Z,125
2018-04-28T07:22:39.540Z,130
2018-04-28T07:23:41.141Z,130
2018-04-28T07:24:39.856Z,135
2018-04-28T07:25:39.828Z,135
2018-04-28T07:26:39.549Z,135
2018-04-28T07:27:39.556Z,140
2018-04-28T07:28:39.782Z,135
2018-04-28T07:29:39.051Z,130
2018-04-28T07:30:39.831Z,125
2018-04-28T07:31:39.535Z,120
2018-04-28T07:32:39.791Z,120
2018-04-28T07:33:39.306Z,120
2018-04-28T07:34:39.537Z,125
2018-04-28T07:35:39.799Z,130
2018-04-28T07:36:39.801Z,135
2018-04-28T07:37:39.793Z,140
2018-04-28T07:38:39.302Z,140
2018-04-28T07:39:39.289Z,140
2018-04-28T07:40:39.867Z,135
2018-04-28T07:41:39.291Z,130
2018-04-28T07:42:39.554Z,130
2018-04-28T07:43:39.539Z,140
2018-04-28T07:44:39.317Z,150
2018-04-28T07:45:39.840Z,165
2018-04-28T07:46:39.555Z,205
2018-04-28T07:47:40.065Z,215
2018-04-28T07:48:39.810Z,210
2018-04-28T07:49:39.544Z,190
2018-04-28T07:50:39.727Z,185
2018-04-28T07:51:39.851Z,180
2018-04-28T07:52:39.859Z,180
2018-04-28T07:53:39.307Z,180
2018-04-28T07:54:40.626Z,185
2018-04-28T07:55:39.654Z,190
2018-04-28T07:56:39.794Z,195
2018-04-28T07:57:39.560Z,200
2018-04-28T07:58:39.295Z,200
2018-04-28T07:59:39.797Z,210
2018-04-28T08:00:39.354Z,225
2018-04-28T08:01:39.315Z,240
2018-04-28T08:02:39.568Z,240
2018-04-28T08:03:39.550Z,255
2018-04-28T08:04:39.553Z,290
2018-04-28T08:05:39.838Z,375
2018-04-28T08:06:39.316Z,355
2018-04-28T08:07:39.566Z,410
2018-04-28T08:08:39.620Z,400
2018-04-28T08:09:39.311Z,405
2018-04-28T08:10:39.610Z,370
2018-04-28T08:11:39.319Z,315
2018-04-28T08:12:39.328Z,305
2018-04-28T08:13:39.584Z,290
2018-04-28T08:14:39.565Z,280
2018-04-28T08:15:39.087Z,270
2018-04-28T08:16:39.349Z,255
2018-04-28T08:17:39.340Z,250
2018-04-28T08:18:39.831Z,240
2018-04-28T08:19:39.097Z,240
2018-04-28T08:20:39.682Z,240
2018-04-28T08:21:39.348Z,240
2018-04-28T08:22:39.369Z,250
2018-04-28T08:23:39.604Z,255
2018-04-28T08:24:39.863Z,260
2018-04-28T08:25:38.999Z,250
2018-04-28T08:26:39.796Z,250
2018-04-28T08:27:39.376Z,250
2018-04-28T08:28:39.656Z,250
2018-04-28T08:29:39.429Z,240
2018-04-28T08:30:39.660Z,230
2018-04-28T08:31:39.869Z,220
2018-04-28T08:32:39.618Z,225
2018-04-28T08:33:39.885Z,220
2018-04-28T08:34:39.375Z,215
2018-04-28T08:35:39.514Z,200
2018-04-28T08:36:39.886Z,185
2018-04-28T08:37:38.902Z,170
2018-04-28T08:38:39.402Z,160
2018-04-28T08:39:39.939Z,150
2018-04-28T08:40:39.502Z,140
2018-04-28T08:41:39.647Z,130
2018-04-28T08:42:39.666Z,125
2018-04-28T08:43:39.157Z,125
2018-04-28T08:44:39.494Z,125
2018-04-28T08:45:40.353Z,130
2018-04-28T08:46:39.434Z,130
2018-04-28T08:47:39.671Z,130
2018-04-28T08:48:39.672Z,130
2018-04-28T08:49:39.674Z,125
2018-04-28T08:50:39.444Z,120
2018-04-28T08:51:39.908Z,120
2018-04-28T08:52:39.791Z,125
2018-04-28T08:53:39.444Z,130
2018-04-28T08:54:39.982Z,135
2018-04-28T08:55:39.731Z,145
2018-04-28T08:56:39.847Z,155
2018-04-28T08:57:39.678Z,160
2018-04-28T08:58:39.446Z,155
2018-04-28T08:59:39.692Z,150
2018-04-28T09:00:39.491Z,145
2018-04-28T09:01:39.455Z,140
2018-04-28T09:02:39.439Z,140
2018-04-28T09:03:40.042Z,135
2018-04-28T09:04:39.438Z,140
2018-04-28T09:05:39.757Z,145
2018-04-28T09:06:39.695Z,145
2018-04-28T09:07:39.471Z,145
2018-04-28T09:08:39.937Z,140
2018-04-28T09:09:39.704Z,140
2018-04-28T09:10:39.754Z,140
2018-04-28T09:11:39.692Z,140
2018-04-28T09:12:39.439Z,140
2018-04-28T09:13:39.978Z,140
2018-04-28T09:14:39.948Z,135
2018-04-28T09:15:39.546Z,135
2018-04-28T09:16:39.701Z,135
2018-04-28T09:17:39.690Z,135
2018-04-28T09:18:39.941Z,135
2018-04-28T09:19:39.697Z,135
2018-04-28T09:20:39.296Z,135
2018-04-28T09:21:39.949Z,135
2018-04-28T09:22:39.713Z,130
2018-04-28T09:23:39.956Z,125
2018-04-28T09:24:39.704Z,120
2018-04-28T09:25:40.004Z,115
2018-04-28T09:26:39.450Z,110
2018-04-28T09:27:39.949Z,105
2018-04-28T09:28:40.013Z,105
2018-04-28T09:29:39.701Z,100
2018-04-28T09:30:39.457Z,95
2018-04-28T09:31:39.778Z,95
2018-04-28T09:32:39.450Z,95
2018-04-28T09:33:39.231Z,95
2018-04-28T09:34:39.469Z,95
2018-04-28T09:35:39.712Z,95
2018-04-28T09:36:39.705Z,95
2018-04-28T09:37:39.212Z,95
2018-04-28T09:38:39.700Z,95
2018-04-28T09:39:39.715Z,95
2018-04-28T09:40:39.712Z,95
2018-04-28T09:41:39.715Z,95
2018-04-28T09:42:39.212Z,90
2018-04-28T09:43:39.715Z,90
2018-04-28T09:44:39.793Z,90
2018-04-28T09:45:39.554Z,90
2018-04-28T09:46:39.466Z,90
2018-04-28T09:47:39.717Z,90
2018-04-28T09:48:39.961Z,95
2018-04-28T09:49:39.699Z,95
2018-04-28T09:50:39.776Z,100
2018-04-28T09:51:39.225Z,105
2018-04-28T09:52:39.464Z,110
2018-04-28T09:53:39.563Z,120
2018-04-28T09:54:39.719Z,125
2018-04-28T09:55:42.229Z,135
2018-04-28T09:56:39.740Z,145
2018-04-28T09:57:39.964Z,165
2018-04-28T09:58:39.478Z,175
2018-04-28T09:59:39.967Z,195
2018-04-28T10:00:39.502Z,210
2018-04-28T10:01:39.473Z,215
2018-04-28T10:02:39.705Z,230
2018-04-28T10:03:39.950Z,240
2018-04-28T10:04:39.750Z,250
2018-04-28T10:05:39.741Z,260
2018-04-28T10:06:39.273Z,270
2018-04-28T10:07:39.706Z,285
2018-04-28T10:08:39.219Z,295
2018-04-28T10:09:39.707Z,300
2018-04-28T10:10:39.534Z,305
2018-04-28T10:11:39.967Z,300
2018-04-28T10:12:39.294Z,295
2018-04-28T10:13:40.929Z,290
2018-04-28T10:14:39.724Z,290
2018-04-28T10:15:39.325Z,290
2018-04-28T10:16:39.724Z,290
2018-04-28T10:17:39.795Z,295
2018-04-28T10:18:39.729Z,295
2018-04-28T10:19:39.979Z,295
2018-04-28T10:20:39.779Z,295
2018-04-28T10:21:39.246Z,295
2018-04-28T10:22:39.490Z,290
2018-04-28T10:53:16.732Z,390
2018-04-28T10:54:16.687Z,385
2018-04-28T10:55:18.074Z,390
2018-04-28T10:56:16.680Z,385
2018-04-28T10:57:16.686Z,380
2018-04-28T10:58:16.677Z,375
2018-04-28T10:59:15.939Z,380
2018-04-28T11:00:17.752Z,370
2018-04-28T11:01:16.198Z,360
2018-04-28T11:02:16.446Z,350
2018-04-28T11:03:16.959Z,350
2018-04-28T11:04:16.431Z,350
2018-04-28T11:05:18.354Z,350
2018-04-28T11:06:16.643Z,355
2018-04-28T11:07:16.934Z,365
2018-04-28T11:08:16.688Z,370
2018-04-28T11:09:16.451Z,375
2018-04-28T11:10:17.744Z,385
2018-04-28T11:11:16.941Z,385
2018-04-28T11:12:16.309Z,390
2018-04-28T11:13:16.476Z,385
2018-04-28T11:14:16.711Z,385
2018-04-28T11:15:18.345Z,385
2018-04-28T11:16:16.703Z,385
2018-04-28T11:17:16.209Z,385
2018-04-28T11:18:16.455Z,385
2018-04-28T11:19:16.464Z,390
2018-04-28T11:20:18.226Z,385
2018-04-28T11:21:16.516Z,390
2018-04-28T11:22:16.241Z,390
2018-04-28T11:23:16.255Z,395
2018-04-28T11:24:16.767Z,390
2018-04-28T11:25:17.704Z,390
2018-04-28T11:26:16.746Z,390
2018-04-28T11:27:16.761Z,385
2018-04-28T11:28:16.745Z,385
2018-04-28T11:29:17.008Z,385
2018-04-28T11:30:18.782Z,375
2018-04-28T11:31:16.762Z,375
2018-04-28T11:32:16.792Z,370
2018-04-28T11:33:16.504Z,365
2018-04-28T11:34:16.506Z,360
2018-04-28T11:35:18.507Z,360
2018-04-28T11:36:16.776Z,365
2018-04-28T11:37:17.034Z,375
2018-04-28T11:38:17.018Z,370
2018-04-28T11:39:16.782Z,370
2018-04-28T11:40:18.438Z,370
2018-04-28T11:41:16.791Z,370
2018-04-28T11:42:16.534Z,370
2018-04-28T11:43:16.294Z,375
2018-04-28T11:44:16.800Z,380
2018-04-28T11:45:18.142Z,385
2018-04-28T11:46:16.818Z,385
2018-04-28T11:47:17.052Z,390
2018-04-28T11:48:16.381Z,390
2018-04-28T11:49:16.825Z,390
2018-04-28T11:50:17.966Z,390
2018-04-28T11:51:16.828Z,395
2018-04-28T11:52:17.138Z,395
2018-04-28T11:53:16.627Z,395
2018-04-28T11:54:16.611Z,400
2018-04-28T11:55:18.318Z,400
2018-04-28T11:56:16.648Z,395
2018-04-28T11:57:16.341Z,395
2018-04-28T11:58:16.615Z,395
2018-04-28T11:59:16.865Z,400
2018-04-28T12:00:17.583Z,400
2018-04-28T12:01:16.633Z,400
2018-04-28T12:02:17.144Z,395
2018-04-28T12:03:16.871Z,395
2018-04-28T12:04:16.886Z,395
2018-04-28T12:05:18.779Z,395
2018-04-28T12:06:16.896Z,395
2018-04-28T12:07:16.874Z,395
2018-04-28T12:08:16.691Z,395
2018-04-28T12:09:16.878Z,400
2018-04-28T12:10:18.166Z,405
2018-04-28T12:11:16.650Z,400
2018-04-28T12:12:16.814Z,405
2018-04-28T12:13:17.396Z,400
2018-04-28T12:14:16.399Z,400
2018-04-28T12:15:17.946Z,395
2018-04-28T12:16:16.931Z,395
2018-04-28T12:17:16.682Z,390
2018-04-28T12:18:16.704Z,385
2018-04-28T12:19:16.936Z,380
2018-04-28T12:20:18.196Z,375
2018-04-28T12:21:17.490Z,375
2018-04-28T12:22:16.944Z,375
2018-04-28T12:23:16.943Z,370
2018-04-28T12:24:17.187Z,370
2018-04-28T12:25:17.970Z,375
2018-04-28T12:26:16.744Z,380
2018-04-28T12:27:16.756Z,385
2018-04-28T12:28:17.823Z,385
2018-04-28T12:29:16.206Z,380
2018-04-28T12:30:18.684Z,370
2018-04-28T12:31:16.961Z,375
2018-04-28T12:32:16.776Z,375
2018-04-28T12:33:16.998Z,375
2018-04-28T12:34:16.727Z,375
2018-04-28T12:35:18.483Z,360
2018-04-28T12:36:16.732Z,350
2018-04-28T12:37:16.719Z,340
2018-04-28T12:38:16.980Z,340
2018-04-28T12:39:16.985Z,340
2018-04-28T12:40:18.612Z,330
2018-04-28T12:41:17.005Z,340
2018-04-28T12:42:16.753Z,325
2018-04-28T12:43:16.757Z,320
2018-04-28T12:44:16.755Z,320
2018-04-28T12:45:18.300Z,325
2018-04-28T12:46:16.777Z,310
2018-04-28T12:47:17.414Z,310
2018-04-28T12:48:17.272Z,290
2018-04-28T12:49:16.778Z,285
2018-04-28T12:50:17.946Z,275
2018-04-28T12:51:17.109Z,275
2018-04-28T12:52:17.030Z,260
2018-04-28T12:53:16.795Z,280
2018-04-28T12:54:17.047Z,265
2018-04-28T12:55:18.812Z,260
2018-04-28T12:56:17.298Z,255
2018-04-28T12:57:17.323Z,250
2018-04-28T12:58:17.050Z,245
2018-04-28T12:59:17.354Z,240
2018-04-28T13:00:18.271Z,240
2018-04-28T13:01:16.800Z,230
2018-04-28T13:02:17.314Z,220
2018-04-28T13:03:17.072Z,220
2018-04-28T13:04:17.052Z,215
2018-04-28T13:05:18.385Z,215
2018-04-28T13:06:17.205Z,205
2018-04-28T13:07:17.071Z,215
2018-04-28T13:08:17.070Z,210
2018-04-28T13:09:17.073Z,210
2018-04-28T13:10:18.486Z,210
2018-04-28T13:11:16.854Z,205
2018-04-28T13:12:16.846Z,205
2018-04-28T13:13:17.085Z,200
2018-04-28T13:14:17.344Z,190
2018-04-28T13:15:18.737Z,190
2018-04-28T13:16:17.093Z,190
2018-04-28T13:17:17.108Z,190
2018-04-28T13:18:17.354Z,190
2018-04-28T13:19:17.368Z,195
2018-04-28T13:20:18.135Z,190
2018-04-28T13:21:16.874Z,190
2018-04-28T13:22:17.107Z,190
2018-04-28T13:23:17.221Z,190
2018-04-28T13:24:17.110Z,185
2018-04-28T13:25:18.724Z,185
2018-04-28T13:26:17.129Z,185
2018-04-28T13:27:16.865Z,185
2018-04-28T13:28:16.865Z,185
2018-04-28T13:29:17.540Z,185
2018-04-28T13:30:18.488Z,185
2018-04-28T13:31:17.129Z,190
2018-04-28T13:32:17.432Z,190
2018-04-28T13:33:17.123Z,180
2018-04-28T13:34:16.664Z,185
2018-04-28T13:35:18.432Z,190
2018-04-28T13:36:17.160Z,195
2018-04-28T13:37:17.386Z,195
2018-04-28T13:38:17.395Z,195
2018-04-28T13:39:16.633Z,190
2018-04-28T13:40:18.878Z,190
2018-04-28T13:41:17.605Z,190
2018-04-28T13:42:17.145Z,190
2018-04-28T13:43:17.175Z,190
2018-04-28T13:44:16.653Z,185
2018-04-28T13:45:18.213Z,190
2018-04-28T13:46:17.487Z,190
2018-04-28T13:47:17.177Z,190
2018-04-28T13:48:17.010Z,190
2018-04-28T13:49:17.164Z,190
2018-04-28T13:50:19.217Z,190
2018-04-28T13:51:17.185Z,190
2018-04-28T13:52:16.920Z,190
2018-04-28T13:53:17.181Z,195
2018-04-28T13:54:17.424Z,195
2018-04-28T13:55:18.895Z,195
2018-04-28T13:56:16.431Z,190
2018-04-28T13:57:17.432Z,180
2018-04-28T13:58:16.945Z,190
2018-04-28T13:59:17.193Z,195
2018-04-28T14:00:18.072Z,195
2018-04-28T14:01:17.185Z,210
2018-04-28T14:02:17.442Z,215
2018-04-28T14:03:16.689Z,215
2018-04-28T14:04:17.429Z,220
2018-04-28T14:05:19.011Z,220
2018-04-28T14:06:16.956Z,225
2018-04-28T14:07:16.946Z,225
2018-04-28T14:08:16.697Z,225
2018-04-28T14:09:16.711Z,225
2018-04-28T14:10:18.534Z,220
2018-04-28T14:11:17.197Z,220
2018-04-28T14:12:17.016Z,220
2018-04-28T14:13:17.199Z,225
2018-04-28T14:14:17.289Z,225
2018-04-28T14:15:18.159Z,235
2018-04-28T14:16:17.219Z,235
2018-04-28T14:17:17.240Z,250
2018-04-28T14:18:16.991Z,250
2018-04-28T14:19:17.240Z,250
2018-04-28T14:20:18.616Z,235
2018-04-28T14:21:17.494Z,230
2018-04-28T14:22:16.989Z,235
2018-04-28T14:23:17.064Z,235
2018-04-28T14:24:17.028Z,230
2018-04-28T14:25:18.944Z,230
2018-04-28T14:26:17.270Z,225
2018-04-28T14:27:17.016Z,220
2018-04-28T14:28:17.250Z,220
2018-04-28T14:29:17.007Z,225
2018-04-28T14:30:18.034Z,235
2018-04-28T14:31:17.020Z,240
2018-04-28T14:32:17.429Z,250
2018-04-28T14:33:17.264Z,245
2018-04-28T14:34:17.528Z,245
2018-04-28T14:35:18.505Z,250
2018-04-28T14:36:17.323Z,250
2018-04-28T14:37:17.279Z,250
2018-04-28T14:38:17.114Z,250
2018-04-28T14:39:17.028Z,250
2018-04-28T14:40:18.288Z,250
2018-04-28T14:41:17.302Z,250
2018-04-28T14:42:17.290Z,255
2018-04-28T14:43:17.283Z,255
2018-04-28T14:44:17.570Z,270
2018-04-28T14:45:18.533Z,260
2018-04-28T14:46:17.312Z,260
2018-04-28T14:47:17.115Z,250
2018-04-28T14:48:17.558Z,245
2018-04-28T14:49:17.334Z,245
2018-04-28T14:50:18.009Z,235
2018-04-28T14:51:17.330Z,250
2018-04-28T14:52:17.165Z,235
2018-04-28T14:53:17.665Z,230